createdAt,value
2019-03-09T00:01:58.306Z,4.50
2019-03-09T00:04:29.581Z,6.67
2019-03-09T00:07:00.973Z,5.87
2019-03-09T00:09:32.616Z,5.80
2019-03-09T00:12:03.940Z,7.00
2019-03-09T00:14:35.162Z,7.00
2019-03-09T00:17:06.378Z,6.30
2019-03-09T00:19:37.611Z,3.60
2019-03-09T00:22:08.948Z,4.45
2019-03-09T00:24:45.071Z,4.70
2019-03-09T00:27:17.914Z,4.33
2019-03-09T00:29:57.606Z,4.33
2019-03-09T00:32:29.000Z,4.08
2019-03-09T00:35:00.297Z,5.28
2019-03-09T00:37:31.465Z,4.10
2019-03-09T00:40:02.686Z,4.65
2019-03-09T00:42:33.914Z,4.30
2019-03-09T00:45:06.209Z,3.95
2019-03-09T00:47:37.420Z,4.42
2019-03-09T00:50:10.451Z,3.55
2019-03-09T00:52:41.660Z,4.67
2019-03-09T00:55:13.870Z,4.12
2019-03-09T00:57:45.202Z,4.28
2019-03-09T01:00:18.484Z,4.53
2019-03-09T01:02:51.169Z,3.42
2019-03-09T01:05:22.790Z,4.60
2019-03-09T01:07:53.854Z,5.40
2019-03-09T01:10:25.072Z,3.08
2019-03-09T01:12:56.276Z,5.20
2019-03-09T01:15:27.469Z,4.42
2019-03-09T01:17:58.748Z,4.20
2019-03-09T01:20:31.139Z,5.15
2019-03-09T01:23:02.439Z,4.22
2019-03-09T01:25:33.535Z,4.67
2019-03-09T01:28:04.873Z,4.58
2019-03-09T01:30:36.101Z,3.90
2019-03-09T01:33:07.268Z,3.83
2019-03-09T01:35:38.593Z,5.33
2019-03-09T01:38:09.803Z,5.10
2019-03-09T01:40:41.038Z,4.72
2019-03-09T01:43:12.269Z,5.33
2019-03-09T01:45:43.472Z,4.10
2019-03-09T01:48:14.747Z,4.10
2019-03-09T01:50:46.114Z,4.50
2019-03-09T01:53:17.184Z,4.75
2019-03-09T01:55:48.479Z,5.07
2019-03-09T01:58:19.925Z,4.12
2019-03-09T02:00:51.127Z,4.25
2019-03-09T02:03:22.411Z,4.20
2019-03-09T02:05:53.570Z,4.47
2019-03-09T02:08:24.655Z,4.43
2019-03-09T02:10:55.919Z,5.08
2019-03-09T02:13:27.135Z,4.60
2019-03-09T02:15:58.736Z,4.12
2019-03-09T02:18:30.091Z,4.63
2019-03-09T02:21:01.445Z,4.50
2019-03-09T02:23:32.728Z,4.03
2019-03-09T02:26:03.924Z,4.87
2019-03-09T02:28:35.050Z,5.00
2019-03-09T02:31:06.427Z,4.67
2019-03-09T02:33:37.767Z,4.75
2019-03-09T02:36:09.128Z,4.87
2019-03-09T02:38:42.046Z,5.65
2019-03-09T02:41:13.461Z,4.47
2019-03-09T02:43:44.707Z,4.87
2019-03-09T02:46:15.905Z,4.37
2019-03-09T02:48:47.056Z,4.90
2019-03-09T02:51:18.312Z,4.55
2019-03-09T02:53:49.702Z,5.67
2019-03-09T02:56:20.953Z,4.87
2019-03-09T02:58:52.289Z,4.47
2019-03-09T03:01:25.084Z,4.15
2019-03-09T03:03:56.217Z,4.00
2019-03-09T03:06:27.511Z,5.03
2019-03-09T03:08:58.780Z,3.50
2019-03-09T03:11:29.988Z,4.33
2019-03-09T03:14:01.116Z,4.47
2019-03-09T03:16:32.347Z,4.80
2019-03-09T03:19:03.490Z,3.85
2019-03-09T03:21:34.824Z,4.08
2019-03-09T03:24:06.167Z,4.40
2019-03-09T03:26:37.309Z,4.80
2019-03-09T03:29:08.541Z,4.00
2019-03-09T03:31:39.791Z,4.47
2019-03-09T03:34:11.242Z,4.08
2019-03-09T03:36:42.318Z,2.87
2019-03-09T03:39:13.482Z,4.40
2019-03-09T03:41:44.675Z,4.27
2019-03-09T03:44:15.839Z,4.62
2019-03-09T03:46:47.063Z,4.67
2019-03-09T03:49:18.400Z,4.53
2019-03-09T03:51:50.773Z,5.12
2019-03-09T03:54:21.888Z,4.75
2019-03-09T03:56:53.038Z,4.30
2019-03-09T03:59:24.423Z,4.37
2019-03-09T04:01:55.765Z,3.80
2019-03-09T04:04:26.967Z,5.05
2019-03-09T04:06:58.129Z,4.53
2019-03-09T04:09:29.426Z,5.05
2019-03-09T04:12:00.678Z,4.17
2019-03-09T04:14:31.906Z,5.08
2019-03-09T04:17:03.139Z,3.95
2019-03-09T04:19:34.474Z,4.60
2019-03-09T04:22:05.858Z,5.20
2019-03-09T04:24:38.735Z,5.08
2019-03-09T04:27:09.995Z,4.92
2019-03-09T04:29:41.740Z,4.72
2019-03-09T04:32:13.038Z,5.00
2019-03-09T04:34:44.262Z,5.75
2019-03-09T04:37:15.417Z,4.70
2019-03-09T04:39:46.623Z,4.90
2019-03-09T04:42:17.928Z,5.42
2019-03-09T04:44:49.091Z,5.72
2019-03-09T04:47:20.220Z,5.50
2019-03-09T04:49:51.554Z,5.17
2019-03-09T04:52:22.897Z,4.05
2019-03-09T04:54:54.114Z,5.72
2019-03-09T04:57:25.739Z,5.10
2019-03-09T04:59:56.984Z,5.55
2019-03-09T05:02:28.209Z,4.77
2019-03-09T05:04:59.561Z,75.10
2019-03-09T05:07:30.929Z,6.12
2019-03-09T05:10:08.220Z,5.87
2019-03-09T05:12:39.545Z,5.67
2019-03-09T05:15:13.719Z,6.00
2019-03-09T05:17:45.030Z,5.90
2019-03-09T05:20:16.284Z,5.97
2019-03-09T05:22:47.580Z,6.33
2019-03-09T05:25:18.861Z,7.20
2019-03-09T05:27:50.083Z,7.50
2019-03-09T05:30:38.434Z,9.20
2019-03-09T05:33:09.605Z,9.03
2019-03-09T05:35:40.814Z,9.17
2019-03-09T05:38:12.019Z,8.00
2019-03-09T05:40:44.338Z,7.55
2019-03-09T05:43:15.572Z,6.53
2019-03-09T05:45:46.751Z,7.42
2019-03-09T05:48:18.000Z,7.83
2019-03-09T05:50:49.243Z,8.00
2019-03-09T05:53:20.892Z,7.67
2019-03-09T05:55:52.039Z,8.03
2019-03-09T05:58:23.374Z,7.33
2019-03-09T06:00:54.639Z,7.83
2019-03-09T06:03:25.870Z,6.65
2019-03-09T06:05:57.376Z,7.15
2019-03-09T06:10:59.662Z,7.17
2019-03-09T06:13:30.865Z,7.42
2019-03-09T06:16:02.098Z,7.83
2019-03-09T06:18:33.330Z,6.40
2019-03-09T06:21:04.578Z,7.92
2019-03-09T06:23:35.837Z,7.37
2019-03-09T06:26:07.250Z,9.45
2019-03-09T06:28:38.589Z,23.55
2019-03-09T06:31:09.983Z,9.75
2019-03-09T06:33:41.303Z,8.70
2019-03-09T06:36:21.998Z,14.78
2019-03-09T06:38:56.393Z,9.45
2019-03-09T06:41:43.052Z,13.83
2019-03-09T06:44:14.448Z,10.38
2019-03-09T06:46:45.818Z,16.37
2019-03-09T06:49:17.679Z,10.40
2019-03-09T06:51:49.023Z,9.10
2019-03-09T06:54:20.372Z,13.08
2019-03-09T06:56:51.610Z,11.78
2019-03-09T06:59:23.033Z,11.18
2019-03-09T07:01:54.293Z,7.80
2019-03-09T07:04:25.610Z,6.67
2019-03-09T07:06:57.005Z,9.63
2019-03-09T07:09:28.443Z,9.75
2019-03-09T07:11:59.770Z,7.75
2019-03-09T07:14:54.045Z,7.33
2019-03-09T07:17:25.511Z,8.45
2019-03-09T07:19:56.859Z,8.53
2019-03-09T07:22:28.206Z,8.65
2019-03-09T07:24:59.995Z,8.33
2019-03-09T07:27:31.376Z,8.33
2019-03-09T07:30:06.211Z,8.75
2019-03-09T07:32:37.630Z,8.38
2019-03-09T07:35:09.301Z,9.10
2019-03-09T07:37:40.683Z,9.10
2019-03-09T07:40:13.291Z,8.65
2019-03-09T07:42:44.644Z,9.10
2019-03-09T07:45:16.066Z,9.08
2019-03-09T07:47:47.515Z,9.13
2019-03-09T07:50:18.783Z,10.38
2019-03-09T07:52:50.243Z,10.28
2019-03-09T07:55:24.246Z,12.47
2019-03-09T07:57:59.810Z,11.20
2019-03-09T08:00:31.241Z,11.65
2019-03-09T08:03:02.657Z,10.55
2019-03-09T08:05:34.078Z,11.68
2019-03-09T08:08:05.623Z,10.78
2019-03-09T08:10:36.968Z,11.05
2019-03-09T08:13:08.176Z,10.95
2019-03-09T08:15:39.468Z,12.35
2019-03-09T08:18:10.975Z,11.45
2019-03-09T08:20:42.371Z,11.78
2019-03-09T08:23:13.818Z,20.97
2019-03-09T08:25:45.395Z,19.57
2019-03-09T08:28:16.817Z,16.12
2019-03-09T08:30:48.110Z,11.65
2019-03-09T08:33:19.578Z,11.97
2019-03-09T08:35:51.055Z,16.10
2019-03-09T08:38:22.327Z,14.40
2019-03-09T08:40:53.951Z,15.43
2019-03-09T08:43:25.454Z,14.38
2019-03-09T08:45:56.802Z,12.98
2019-03-09T08:48:29.197Z,12.37
2019-03-09T08:51:00.643Z,15.05
2019-03-09T08:53:31.983Z,21.73
2019-03-09T08:56:03.378Z,13.68
2019-03-09T08:58:34.850Z,16.67
2019-03-09T09:01:06.323Z,16.52
2019-03-09T09:03:37.794Z,16.35
2019-03-09T09:06:09.115Z,20.97
2019-03-09T09:08:40.685Z,18.17
2019-03-09T09:11:12.113Z,16.07
2019-03-09T09:13:43.517Z,15.78
2019-03-09T09:16:15.281Z,12.20
2019-03-09T09:18:46.715Z,11.33
2019-03-09T09:21:17.921Z,13.15
2019-03-09T09:23:49.182Z,13.60
2019-03-09T09:26:20.644Z,15.25
2019-03-09T09:28:51.892Z,14.20
2019-03-09T09:31:23.368Z,14.00
2019-03-09T09:33:54.628Z,16.37
2019-03-09T09:36:26.059Z,14.93
2019-03-09T09:38:57.351Z,21.15
2019-03-09T09:41:28.893Z,16.97
2019-03-09T09:44:00.241Z,12.70
2019-03-09T09:46:31.656Z,13.08
2019-03-09T09:49:03.426Z,20.23
2019-03-09T09:51:34.795Z,13.35
2019-03-09T09:54:06.229Z,13.72
2019-03-09T09:56:37.596Z,16.52
2019-03-09T09:59:09.213Z,18.50
2019-03-09T10:01:40.599Z,19.30
2019-03-09T10:04:11.977Z,17.98
2019-03-09T10:06:43.436Z,16.40
2019-03-09T10:09:15.770Z,18.07
2019-03-09T10:11:47.282Z,19.40
2019-03-09T10:14:18.816Z,18.30
2019-03-09T10:16:50.150Z,21.45
2019-03-09T10:19:21.499Z,20.85
2019-03-09T10:21:53.047Z,20.15
2019-03-09T10:24:24.640Z,20.57
2019-03-09T10:26:55.977Z,19.95
2019-03-09T10:29:27.408Z,20.68
2019-03-09T10:31:58.869Z,21.40
2019-03-09T10:34:30.299Z,24.72
2019-03-09T10:37:01.587Z,32.98
2019-03-09T10:42:05.504Z,35.23
2019-03-09T10:44:36.843Z,29.82
2019-03-09T10:47:11.344Z,29.72
2019-03-09T10:49:47.433Z,27.50
2019-03-09T10:52:18.752Z,25.32
2019-03-09T10:54:53.257Z,24.37
2019-03-09T10:57:24.593Z,26.00
2019-03-09T10:59:55.916Z,33.98
2019-03-09T11:02:27.365Z,33.73
2019-03-09T11:05:01.613Z,29.63
2019-03-09T11:07:32.931Z,28.35
2019-03-09T11:10:07.062Z,28.57
2019-03-09T11:12:38.833Z,30.27
2019-03-09T11:15:15.100Z,31.25
2019-03-09T11:17:46.748Z,35.75
2019-03-09T11:20:19.383Z,32.05
2019-03-09T11:22:50.755Z,31.90
2019-03-09T11:25:22.098Z,24.72
2019-03-09T11:27:53.587Z,32.03
2019-03-09T11:30:29.500Z,32.05
2019-03-09T11:33:00.884Z,48.52
2019-03-09T11:35:32.941Z,51.10
2019-03-09T11:38:05.325Z,56.88
2019-03-09T11:43:07.161Z,47.88
2019-03-09T11:45:39.581Z,48.70
2019-03-09T11:48:11.066Z,57.03
2019-03-09T11:50:43.162Z,53.92
2019-03-09T11:55:44.999Z,45.58
2019-03-09T11:58:16.447Z,41.85
2019-03-09T12:00:48.294Z,45.35
2019-03-09T12:03:20.458Z,44.33
2019-03-09T12:05:51.643Z,43.78
2019-03-09T12:08:24.447Z,45.20
2019-03-09T12:10:57.403Z,50.40
2019-03-09T12:13:28.837Z,48.92
2019-03-09T12:16:00.322Z,45.03
2019-03-09T12:18:31.633Z,50.67
2019-03-09T12:21:02.982Z,45.70
2019-03-09T12:23:34.401Z,47.20
2019-03-09T12:26:11.160Z,48.42
2019-03-09T12:28:42.417Z,48.50
2019-03-09T12:31:14.192Z,52.30
2019-03-09T12:33:45.492Z,50.98
2019-03-09T12:36:16.836Z,46.98
2019-03-09T12:38:48.121Z,46.05
2019-03-09T12:41:19.453Z,40.65
2019-03-09T12:43:50.818Z,40.43
2019-03-09T12:46:22.168Z,36.10
2019-03-09T12:48:53.550Z,37.17
2019-03-09T12:51:24.789Z,31.40
2019-03-09T12:53:56.150Z,32.40
2019-03-09T12:56:27.526Z,31.48
2019-03-09T12:58:58.691Z,31.00
2019-03-09T13:01:30.147Z,33.28
2019-03-09T13:04:01.539Z,33.78
2019-03-09T13:06:32.942Z,33.92
2019-03-09T13:09:04.783Z,35.33
2019-03-09T13:11:37.700Z,33.35
2019-03-09T13:14:09.151Z,35.25
2019-03-09T13:16:40.525Z,35.65
2019-03-09T13:19:11.814Z,34.80
2019-03-09T13:21:43.133Z,31.95
2019-03-09T13:24:14.568Z,32.25
2019-03-09T13:26:46.026Z,30.65
2019-03-09T13:29:17.598Z,30.17
2019-03-09T13:31:48.993Z,31.12
2019-03-09T13:34:20.321Z,29.77
2019-03-09T13:36:51.779Z,34.55
2019-03-09T13:39:23.263Z,35.95
2019-03-09T13:41:54.613Z,38.80
2019-03-09T13:44:25.940Z,36.95
2019-03-09T13:46:57.379Z,38.25
2019-03-09T13:49:28.828Z,40.58
2019-03-09T13:52:00.206Z,36.48
2019-03-09T13:54:31.568Z,37.95
2019-03-09T13:57:02.973Z,33.02
2019-03-09T13:59:34.316Z,33.65
2019-03-09T14:02:05.784Z,31.60
2019-03-09T14:04:37.114Z,29.07
2019-03-09T14:07:08.427Z,29.07
2019-03-09T14:09:39.788Z,31.62
2019-03-09T14:12:11.067Z,31.55
2019-03-09T14:14:42.520Z,31.25
2019-03-09T14:17:14.010Z,34.15
2019-03-09T14:19:45.382Z,31.52
2019-03-09T14:22:16.870Z,29.80
2019-03-09T14:24:48.197Z,29.48
2019-03-09T14:27:19.452Z,30.37
2019-03-09T14:29:50.821Z,29.70
2019-03-09T14:32:22.104Z,29.30
2019-03-09T14:34:53.506Z,26.57
2019-03-09T14:37:24.944Z,27.30
2019-03-09T14:39:56.272Z,30.48
2019-03-09T14:42:27.767Z,27.70
2019-03-09T14:44:59.121Z,26.82
2019-03-09T14:47:30.591Z,29.27
2019-03-09T14:50:01.970Z,29.67
2019-03-09T14:52:33.370Z,31.87
2019-03-09T14:55:06.347Z,32.00
2019-03-09T14:57:37.780Z,31.20
2019-03-09T15:00:23.442Z,31.87
2019-03-09T15:02:54.706Z,32.83
2019-03-09T15:05:26.069Z,36.25
2019-03-09T15:07:57.510Z,39.23
2019-03-09T15:10:28.791Z,40.65
2019-03-09T15:13:00.179Z,39.48
2019-03-09T15:15:31.527Z,41.02
2019-03-09T15:18:02.785Z,40.38
2019-03-09T15:20:34.088Z,43.55
2019-03-09T15:23:05.448Z,53.70
2019-03-09T15:25:36.769Z,58.20
2019-03-09T15:28:08.290Z,53.20
2019-03-09T15:30:39.688Z,43.83
2019-03-09T15:33:11.071Z,38.90
2019-03-09T15:35:42.421Z,44.95
2019-03-09T15:38:13.896Z,39.23
2019-03-09T15:40:45.340Z,37.88
2019-03-09T15:43:16.715Z,38.75
2019-03-09T15:45:48.131Z,37.35
2019-03-09T15:48:19.616Z,37.25
2019-03-09T15:50:50.890Z,39.35
2019-03-09T15:53:22.269Z,38.42
2019-03-09T15:58:24.691Z,38.83
2019-03-09T16:00:56.045Z,38.88
2019-03-09T16:03:27.343Z,42.62
2019-03-09T16:05:58.600Z,44.03
2019-03-09T16:08:29.882Z,42.20
2019-03-09T16:11:01.282Z,44.93
2019-03-09T16:13:32.598Z,46.40
2019-03-09T16:16:03.940Z,47.48
2019-03-09T16:18:35.320Z,51.00
2019-03-09T16:21:06.681Z,52.00
2019-03-09T16:23:37.943Z,57.17
2019-03-09T16:26:09.204Z,54.98
2019-03-09T16:28:40.646Z,54.20
2019-03-09T16:31:12.107Z,53.75
2019-03-09T16:33:43.452Z,56.77
2019-03-09T16:36:14.936Z,61.30
2019-03-09T16:38:47.244Z,56.53
2019-03-09T16:41:19.736Z,55.98
2019-03-09T16:43:51.170Z,58.13
2019-03-09T16:46:22.573Z,63.20
2019-03-09T16:48:54.014Z,60.78
2019-03-09T16:51:25.426Z,63.50
2019-03-09T16:53:56.807Z,62.40
2019-03-09T16:56:28.229Z,66.47
2019-03-09T16:58:59.699Z,73.80
2019-03-09T17:01:31.057Z,92.02
2019-03-09T17:04:02.466Z,100.22
2019-03-09T17:06:33.866Z,102.72
2019-03-09T17:09:05.980Z,93.05
2019-03-09T17:11:38.881Z,89.47
2019-03-09T17:14:10.350Z,92.08
2019-03-09T17:16:41.627Z,88.65
2019-03-09T17:19:13.530Z,91.50
2019-03-09T17:21:46.129Z,106.85
2019-03-09T17:24:17.508Z,110.35
2019-03-09T17:26:48.832Z,97.42
2019-03-09T17:29:20.263Z,101.50
2019-03-09T17:31:51.624Z,95.97
2019-03-09T17:34:22.880Z,92.37
2019-03-09T17:36:54.247Z,94.75
2019-03-09T17:39:25.607Z,107.03
2019-03-09T17:41:56.751Z,66.28
2019-03-09T17:44:28.235Z,97.57
2019-03-09T17:46:59.708Z,110.75
2019-03-09T17:49:30.927Z,89.50
2019-03-09T17:52:02.382Z,100.85
2019-03-09T17:54:33.590Z,93.17
2019-03-09T17:57:06.662Z,97.88
2019-03-09T17:59:38.239Z,88.40
2019-03-09T18:02:09.712Z,96.02
2019-03-09T18:04:41.113Z,113.83
2019-03-09T18:07:12.731Z,99.80
2019-03-09T18:09:45.764Z,111.88
2019-03-09T18:12:18.777Z,112.60
2019-03-09T18:14:51.876Z,105.97
2019-03-09T18:17:25.384Z,106.03
2019-03-09T18:19:56.727Z,107.10
2019-03-09T18:22:28.437Z,112.20
2019-03-09T18:25:02.962Z,122.33
2019-03-09T18:27:36.381Z,120.35
2019-03-09T18:30:10.428Z,104.12
2019-03-09T18:32:45.066Z,103.92
2019-03-09T18:35:16.831Z,113.03
2019-03-09T18:37:48.245Z,107.58
2019-03-09T18:40:19.641Z,106.63
2019-03-09T18:43:01.054Z,109.48
2019-03-09T18:45:32.921Z,111.20
2019-03-09T18:48:09.288Z,114.55
2019-03-09T18:50:44.695Z,115.60
2019-03-09T18:53:19.189Z,108.87
2019-03-09T18:55:58.923Z,106.92
2019-03-09T18:58:25.199Z,111.77
2019-03-09T19:00:58.475Z,112.97
2019-03-09T19:03:31.123Z,116.30
2019-03-09T19:06:04.337Z,102.78
2019-03-09T19:08:36.097Z,104.03
2019-03-09T19:11:07.661Z,106.55
2019-03-09T19:13:39.180Z,97.12
2019-03-09T19:16:10.642Z,94.47
2019-03-09T19:18:42.036Z,83.78
2019-03-09T19:21:14.428Z,88.47
2019-03-09T19:23:45.801Z,81.32
2019-03-09T19:28:49.491Z,62.90
2019-03-09T19:31:20.985Z,76.92
2019-03-09T19:33:52.336Z,74.40
2019-03-09T19:36:23.895Z,69.58
2019-03-09T19:38:55.234Z,75.85
2019-03-09T19:41:26.657Z,74.87
2019-03-09T19:43:58.106Z,74.15
2019-03-09T19:46:29.577Z,73.25
2019-03-09T19:49:02.107Z,90.42
2019-03-09T19:51:34.235Z,94.07
2019-03-09T19:54:05.900Z,104.40
2019-03-09T19:56:37.398Z,111.00
2019-03-09T19:59:10.426Z,88.95
2019-03-09T20:01:45.267Z,106.10
2019-03-09T20:04:17.357Z,107.78
2019-03-09T20:06:48.712Z,111.65
2019-03-09T20:09:22.762Z,127.17
2019-03-09T20:11:55.665Z,114.60
2019-03-09T20:14:26.986Z,112.72
2019-03-09T20:16:58.450Z,118.93
2019-03-09T20:19:29.892Z,84.95
2019-03-09T20:22:01.211Z,119.30
2019-03-09T20:24:33.821Z,132.03
2019-03-09T20:27:05.259Z,114.05
2019-03-09T20:29:36.579Z,106.22
2019-03-09T20:32:07.912Z,104.80
2019-03-09T20:34:39.634Z,104.85
2019-03-09T20:37:15.130Z,108.10
2019-03-09T20:39:46.519Z,93.60
2019-03-09T20:42:17.989Z,90.65
2019-03-09T20:44:49.384Z,99.90
2019-03-09T20:47:20.827Z,86.45
2019-03-09T20:49:52.305Z,101.55
2019-03-09T20:52:26.462Z,96.35
2019-03-09T20:54:57.810Z,96.10
2019-03-09T20:57:29.201Z,94.30
2019-03-09T21:00:00.664Z,94.28
2019-03-09T21:02:32.527Z,94.45
2019-03-09T21:05:04.885Z,93.00
2019-03-09T21:07:36.208Z,85.05
2019-03-09T21:10:10.764Z,97.82
2019-03-09T21:13:00.382Z,97.42
2019-03-09T21:15:32.910Z,97.55
2019-03-09T21:18:05.050Z,84.42
2019-03-09T21:20:36.559Z,92.67
2019-03-09T21:23:07.804Z,92.70
2019-03-09T21:25:39.240Z,91.42
2019-03-09T21:28:11.087Z,98.95
2019-03-09T21:30:42.422Z,103.42
2019-03-09T21:33:13.802Z,107.17
2019-03-09T21:35:45.240Z,123.50
2019-03-09T21:38:16.676Z,126.67
2019-03-09T21:40:48.040Z,145.35
2019-03-09T21:43:20.707Z,150.75
2019-03-09T21:45:52.126Z,138.03
2019-03-09T21:48:23.617Z,127.92
2019-03-09T21:50:54.948Z,130.50
2019-03-09T21:53:26.279Z,126.47
2019-03-09T21:55:57.753Z,131.67
2019-03-09T21:58:29.448Z,128.70
2019-03-09T22:01:01.126Z,123.70
2019-03-09T22:03:32.555Z,123.00
2019-03-09T22:06:06.277Z,122.00
2019-03-09T22:08:37.069Z,116.80
2019-03-09T22:11:09.561Z,132.80
2019-03-09T22:13:40.983Z,122.02
2019-03-09T22:16:12.432Z,114.12
2019-03-09T22:18:43.744Z,115.20
2019-03-09T22:21:15.213Z,124.53
2019-03-09T22:23:46.489Z,113.45
2019-03-09T22:26:18.024Z,119.62
2019-03-09T22:28:49.322Z,126.42
2019-03-09T22:31:21.920Z,119.87
2019-03-09T22:33:53.387Z,124.10
2019-03-09T22:36:24.704Z,130.37
2019-03-09T22:38:56.138Z,122.05
2019-03-09T22:41:27.463Z,123.33
2019-03-09T22:43:58.876Z,122.42
2019-03-09T22:46:30.137Z,143.15
2019-03-09T22:49:01.834Z,134.67
2019-03-09T22:51:33.294Z,129.03
2019-03-09T22:54:04.618Z,125.92
2019-03-09T22:56:35.967Z,140.77
2019-03-09T22:59:07.317Z,160.50
2019-03-09T23:01:38.739Z,149.97
2019-03-09T23:04:10.130Z,156.72
2019-03-09T23:06:41.542Z,143.75
2019-03-09T23:09:12.896Z,154.78
2019-03-09T23:11:44.233Z,156.20
2019-03-09T23:14:15.628Z,163.32
2019-03-09T23:16:46.926Z,151.60
2019-03-09T23:19:18.220Z,130.25
2019-03-09T23:21:49.639Z,135.15
2019-03-09T23:24:21.966Z,133.00
2019-03-09T23:26:53.451Z,141.68
2019-03-09T23:29:24.885Z,124.07
2019-03-09T23:31:56.140Z,91.12
2019-03-09T23:34:27.443Z,124.92
2019-03-09T23:36:58.663Z,129.72
2019-03-09T23:39:29.928Z,136.80
2019-03-09T23:42:01.319Z,123.87
2019-03-09T23:44:32.795Z,119.37
2019-03-09T23:47:04.119Z,131.15
2019-03-09T23:49:35.457Z,115.55
2019-03-09T23:52:06.926Z,123.92
2019-03-09T23:54:38.192Z,104.87
2019-03-09T23:57:09.607Z,86.57
2019-03-09T23:59:41.087Z,122.78
